Southern Sonoma County Latest

20 Stations

15 Minute Data
as of 5/9/26 12:34 PM PDT
Station Date Time Temp (°F) RH (%) Dew Pt (°F) Wind Spd (mph) Wind Dir (°) Wind Gust (mph) Latest Rain (In) Daily Rain (In) Daily Min Temp (°F) Daily Max Temp (°F)
Upper Rincon Valley 5/9/26 1230 71.7   5.7 52   12 53.1   0.5 3.1   0.6 S | 179 6.4   2.0 0.00 0.00 49.5   1.5 72.3   5.7
Lower Bennett Valley 5/9/26 1230 75.4   8.1 52   15 56.8   0.8 3.2   1.0 NNE | 21 7.2   1.3 0.00 0.00 41.9   7.4 76.5   8.4
Kenwood (Wildwood) 5/9/26 1230 76.8   6.9 51   9 57.6   2.0 2.9   0.4 SW | 229 7.2   0.2 0.00 0.00 45.6   4.5 77.5   7.1
Crane Creek (Ranch 62) 5/9/26 1230 76.2   9.0 46   17 53.6   0.2 1.6   0.5 SW | 218 5.0   1.8 0.00 0.00 45.4   4.4 77.2   8.8
Rohnert Park-West (Stony Point) 5/9/26 1230 69.1   4.4 69   7 58.6   1.6 6.6   3.3 SW | 228 11.6   2.2 0.00 0.00 42.8   7.6 71.2   6.5
Rice-Spivak Vineyard 5/9/26 1230 69.3   3.0 - - - - - - - 38.1   11.8 72.6   5.3
Cartograph Wines Base 5/9/26 1230 65.9   2.8 73   5 57.2   1.0 8.8   4.1 S | 191 15.7   7.2 0.00 0.00 46.3   3.0 68.7   5.4
Cartograph Wines Remote 5/9/26 1230 69.6   4.0 - - - - - - - 43.7   6.3 71.8   6.2
Penngrove (Asellus) 5/9/26 1230 74.7   9.1 51   15 55.5   1.6 3.7   0.5 WNW | 285 7.8   0.1 0.00 0.00 42.4   7.4 75.2   8.9
Sonoma Valley (Bedrock) 5/9/26 1230 73.9   5.5 54   6 56.0   2.3 - - - 0.00 0.00 44.0   5.5 74.8   6.1
Sonoma-West (Arnold) 5/9/26 1230 76.0   7.3 53   10 57.9   2.0 4.1   0.4 ESE | 121 9.7   0.4 0.00 0.00 44.4   6.9 76.1   7.2
Sonoma Valley HS 5/9/26 1230 72.2   6.0 62   10 58.7   1.6 3.1   0.6 SW | 218 7.7   1.6 0.00 0.00 46.1   5.1 72.9   6.1
Sonoma East (Bundschu01) 5/9/26 1230 74.1   6.7 57   8 57.8   2.6 3.1   1.3 ESE | 115 8.8   3.1 0.00 0.00 44.6   6.7 75.1   7.3
Sonoma-SE (Napoli) 5/9/26 1230 73.0   5.8 55   7 55.8   1.9 2.5   1.4 S | 190 5.8   3.0 0.00 0.00 44.7   6.1 73.6   5.5
Schellville (Sasaki) 2/7/26 1900 53.4   2.2 88   10 49.9   1.0 3.3   1.8 SW | 225 5.8   4.0 0.00 0.00 47.0   0.8 62.8   8.4
Petaluma (Ranch 10) 5/9/26 1215 74.9   8.0 47   14 53.3   0.2 3.8   0.7 WNW | 303 7.7   0.9 0.00 0.00 42.9   8.4 76.0   8.4
Carneros (Ranch 71) 5/9/26 1230 71.2   5.3 58   6 55.8   2.1 4.3   1.1 SSW | 203 8.7   2.8 0.00 0.00 50.2   0.4 71.8   5.3
Ricci Vineyards (Carneros) 5/9/26 1230 72.5   4.4 59   3 57.3   3.0 5.7   1.6 S | 176 10.4   2.3 0.00 0.00 44.3   6.7 73.0   4.2
Carneros Upper (Ranch 81) 5/9/26 1230 71.1   4.8 61   4 57.1   2.7 5.6   0.9 SSW | 202 9.9   0.7 - - 50.1   0.2 71.6   4.9
Carneros Lower (Ranch 81) 5/9/26 1230 71.8   2.4 62   2 58.2   1.3 2.6   1.4 S | 169 8.5   1.5 0.00 0.01 46.6   4.7 71.8   2.4
Max     76.8 73 58.7 8.8 - 15.7 0.00 0.01 50.2 77.5
Avg     72.6 57 56.5 4.0 - 8.6 0.00 - - -
Min     65.9 46 53.1 1.6 - 5.0 0.00 0.00 38.1 68.7